Alpine, Montana
Current Conditions -  °F | °C
As of 12:55 PM on Saturday 20 Dec 2014 (Local Time) from KPOY Reporting Station
Clear Clear  
Wind Chill: 26°   Ceiling: Unl
Heat Index: 32°   Visibility: 10mi
Dew Point: 19°   Wind: 6mph
Humidity: 60%   Direction: 170°S
Pressure: 29.86"   Gusts: NA
Location:  45.3708°N, 109.409°W
Report Text: KPOY 201955Z AUTO 17005KT 10SM CLR 00/M07 A2986 RMK AO2
Loading
Personal Weather Stations






























Interactive Weather Map New forecast layout! Learn more

10-Day Weather Forecast

Advertisements
Track Severe Weather on mobile